РПИ Самара

Региональный центр Самара (РегЦ) Единой системы организации воздушного движения сети VATSIM является структурным подразделением VATRUS и находится в составе региона "Западная Россия", в который также входят территории Регионального центра Москва и Зонального центра Минск, включающего всю территория Республики Беларусь.

Сегодня зона ответственности РегЦ Самара – это воздушное пространство над территориями 5 республик (Татарстан, Марий Эл, Башкортостан, Мордовия, Чувашия) и 5 областей (Оренбургская, Самарская, Саратовская, Ульяновская и Пензенская) общей площадью около 600 тысяч квадратных километров.

Протяжённость воздушных трасс составляет более 27,5 тысяч километров, из них более 23 тысяч километров составляют международные. В структуру воздушного пространства входят районы полетов 17 гражданских аэродромов (из них 11 - международные) и 23 аэродрома государственной и экспериментальной авиации. В тоже время доступно большое количество аэродромов и посадочных площадок для малой авиации. Также на территории района находится около десятка учебных аэродромов лётных училищ России - УИГА, БЛУГА, СПбГУГА и ККЛУГА.

С 2020 года РегЦ Самара, как и вся западная часть территории России, перешёл на выполнение полетов на высотах в футах по давлению QNH. На каждом аэродроме устанавливается фиксированная высота перехода в футах, при этом эшелон перехода может меняться в зависимости от текущего показателя давления QNH. Исключение составляет аэродром Уфы, где эшелон перехода зафиксирован и равен FL70.

Практически все аэродромы, расположенные в РЦ Самара, нашли своё представление во всех известных гражданских авиасимуляторах, начиная от FS9 и заканчивая MSFS2020. Вы можете найти варианты сценариев (как платных, так и бесплатных) для вашего симулятора на страничке соответствующего аэродрома - список и ссылки приведены ниже.

Одним из преимуществ РегЦ Самара с точки зрения полётов в сети VATSIM является его близость к популярному среди виртуальных пилотов РегЦ Москва, что позволяет совершить короткий перелёт из любого аэропорта Москвы в Поволжье и обратно в течение нескольких часов, что сравнимо по времени с самым популярным среди симмеров маршрутом из Москвы в Петербург и обратно.

При этом следует отметить, что по своей красоте мало какой из регионов может соревноваться с красотами Поволжья, особенно в летний период. Для вашего первого полёта рекомендуем аэродромы Казани и Самары, расположенные на берегах великой реки Волги. Если вы используете для полётов современный симулятор MSFS2020, то наслаждение полётом и внешними видами вам точно будет обеспечено, и вы не раз захотите повторить этот опыт.

Лого Самара
Руководство

Alexander Petrenko

Начальник РегЦ ЕС ОрВД (Самара)
Инструкторы РПИ
Alexander Petrenko (Instructor)
Artem Smorchkov (Instructor)
Ivan Buev * (Controller)
Ivan Chokenyuk * (Controller)
Ivan Skatov (Instructor)
Sergei Stetsko * (Controller)
Входит в состав
Западная Россия

Диспетчеры РПИ

Диспетчер Рейтинг Допуски *
Alexander Petrenko Instructor UWWW_CTR
Alexey Dobronravov Instructor UWWW_CTR
Artem Smorchkov Instructor UWWW_CTR
Dmitry Markus Instructor UWWW_CTR
Ivan Buev Controller UWWW_CTR
Ivan Skatov Instructor UWWW_CTR
Karim Garifullin Controller UWWW_CTR
Maxim Tsygankov Instructor UWWW_CTR
Sergei Stetsko Controller UWWW_CTR
Stanley Yorke Controller UWWW_CTR
Vladimir Anisimov Controller UWWW_CTR
Yulia Goryacheva Instructor UWWW_CTR
Yury Koryagin Instructor UWWW_CTR
Alexander Mikhin Student 2 UWKD_TWR
Arseniy Artyushin Student UWWW_GND
Arthur Kurbangaleev Student UWWW_GND
Evgeniy Dedyaev Senior Student UWKD_APP(UWKD+UWKS+UWKB+UWKE+UWKJ) , UWLL_APP(UWLL+UWLW) , UWSG_APP, UWUU_APP, UWWW_APP
mansur sibgatullin Student UWKD_GND

Аэропорты РПИ

ICAO Город Название Погода
UWWW Самара Курумоч UWWW 100930Z 18009MPS CAVOK M08/M15 Q1030 R15/CLRD60 NOSIG RMK QFE761/1015
UWUU Уфа Уфа UWUU 100930Z 17006MPS CAVOK M12/M17 Q1036 R14R/811052 NOSIG
UWKB Бугульма Бугульма
UWKJ Йошкар-Ола Йошкар-Ола
UWKD Казань Казань UWKD 100930Z 18009G14MPS 0750 R11/0900D +SN BLSN OVC013 M07/M09 Q1024 R11/420540 NOSIG RMK QFE758/1010
UWKE Нижнекамск Бегишево UWKE 100930Z 20009MPS CAVOK M08/M15 Q1027 R21/710060 NOSIG RMK QFE753/1005
UWOO Оренбург Оренбург UWOO 100930Z 12003MPS 100V160 CAVOK M12/M17 Q1041 R08/59D NOSIG RMK QFE770/1026
UWOR Орск Орск UWOR 100900Z 00000MPS CAVOK M12/M19 Q1040 R25/850245 NOSIG RMK QFE756/1008
UWPP Пенза Пенза
UWPS Саранск Саранск UWPS 100930Z 19008MPS 3900 -SN BLSN OVC013 M04/M05 Q1021 R20/450540 TEMPO 18010G17MPS 0500 +FZRA +SN BLSN OVC003 RMK QFE748
UWSG Саратов Гагарин UWSG 100930Z 16004MPS 130V190 9999 BKN014 M06/M10 Q1029 R08/CLRD70 NOSIG RMK QFE770/1026
UWLL Ульяновск-УЛК Ульяновск UWLL 100930Z 20008MPS 9999 OVC015 M05/M08 Q1026 R20/810150 NOSIG RMK QFE759/1012
UWLW Ульяновск-УЛС Восточный UWLW 100900Z 16007MPS CAVOK M08/M12 Q1027 R20/820545 NOSIG RMK QFE765/1020
UWKS Чебоксары Чебоксары UWKS 100930Z 17004MPS 0900 0700SW R06/0900D +SHSN VV003 M06/M06 Q1020 R06/490733 NOSIG RMK QFE750